Time;durP1;ratioP1;P1;durP2;ratioP2;P2;SDS_P1;SDS_P2;PMS_P1;PMS_P2;Temp;Humidity;BMP_temperature;BMP_pressure;BME280_temperature;BME280_humidity;BME280_pressure;Samples;Min_cycle;Max_cycle;Signal;HPM_P1;HPM_P2
2021/08/20 00:00:29;;;;;;;21.67;12.90;;;;;;;;;;5111360;28;20497;-66
2021/08/20 00:02:56;;;;;;;30.20;15.70;;;;;;;;;;5120010;27;20031;-66
2021/08/20 00:05:22;;;;;;;30.70;15.43;;;;;;;;;;5105236;27;20073;-66
2021/08/20 00:07:48;;;;;;;23.98;15.20;;;;;;;;;;5118006;27;20095;-67
2021/08/20 00:10:16;;;;;;;22.65;15.35;;;;;;;;;;5118664;27;20042;-67
2021/08/20 00:12:42;;;;;;;43.55;18.60;;;;;;;;;;5116967;27;20055;-67
2021/08/20 00:15:09;;;;;;;49.47;20.08;;;;;;;;;;5106169;27;20095;-67
2021/08/20 00:17:35;;;;;;;29.27;17.85;;;;;;;;;;5122132;27;20040;-67
2021/08/20 00:20:01;;;;;;;26.95;17.98;;;;;;;;;;5115139;27;20399;-67
2021/08/20 00:22:27;;;;;;;43.63;21.02;;;;;;;;;;5112164;27;20043;-67
2021/08/20 00:24:54;;;;;;;24.52;17.75;;;;;;;;;;5108223;27;20027;-67
2021/08/20 00:27:20;;;;;;;84.35;24.65;;;;;;;;;;5122408;27;20037;-67
2021/08/20 00:29:46;;;;;;;34.90;19.38;;;;;;;;;;5114074;27;20043;-67
2021/08/20 00:32:12;;;;;;;49.60;21.52;;;;;;;;;;5114846;27;20084;-67
2021/08/20 00:34:38;;;;;;;33.72;19.20;;;;;;;;;;5120154;27;20414;-67
2021/08/20 00:37:04;;;;;;;26.30;19.27;;;;;;;;;;5114200;27;20035;-67
2021/08/20 00:39:31;;;;;;;30.55;20.15;;;;;;;;;;5114293;27;20035;-67
2021/08/20 00:41:57;;;;;;;41.78;21.63;;;;;;;;;;5106550;27;20107;-67
2021/08/20 00:44:23;;;;;;;24.40;20.33;;;;;;;;;;5116101;27;20164;-66
2021/08/20 00:46:49;;;;;;;37.33;20.75;;;;;;;;;;5112201;27;20095;-66
2021/08/20 00:49:16;;;;;;;31.95;20.90;;;;;;;;;;5113063;27;20038;-66
2021/08/20 00:51:43;;;;;;;62.20;25.17;;;;;;;;;;5107913;27;20169;-66
2021/08/20 00:54:11;;;;;;;41.78;23.02;;;;;;;;;;5118740;27;20274;-66
2021/08/20 00:56:39;;;;;;;82.25;29.35;;;;;;;;;;5106405;27;20495;-66
2021/08/20 00:59:05;;;;;;;37.33;23.08;;;;;;;;;;5116483;27;20058;-66
2021/08/20 01:01:32;;;;;;;42.05;25.30;;;;;;;;;;5108649;27;20089;-66
2021/08/20 01:03:59;;;;;;;60.53;26.55;;;;;;;;;;5119148;27;20055;-67
2021/08/20 01:06:29;;;;;;;37.95;25.05;;;;;;;;;;5109443;27;20092;-66
2021/08/20 01:08:55;;;;;;;44.35;25.70;;;;;;;;;;5111230;27;20031;-66
2021/08/20 01:11:21;;;;;;;56.13;28.20;;;;;;;;;;5107906;27;20069;-66
2021/08/20 01:13:48;;;;;;;70.95;28.10;;;;;;;;;;5121625;27;20104;-66
2021/08/20 01:16:14;;;;;;;37.40;25.98;;;;;;;;;;5111450;27;20113;-66
2021/08/20 01:18:41;;;;;;;47.50;26.67;;;;;;;;;;5107443;27;20038;-66
2021/08/20 01:21:14;;;;;;;74.93;29.88;;;;;;;;;;5120315;27;20122;-66
2021/08/20 01:23:47;;;;;;;108.93;34.60;;;;;;;;;;5114074;27;20050;-66
2021/08/20 01:26:13;;;;;;;40.25;26.08;;;;;;;;;;5112776;27;20035;-66
2021/08/20 01:28:39;;;;;;;43.50;27.92;;;;;;;;;;5111954;27;20460;-66
2021/08/20 01:31:08;;;;;;;49.00;28.65;;;;;;;;;;5118951;27;20460;-66
2021/08/20 01:33:36;;;;;;;48.10;29.98;;;;;;;;;;5105552;27;20039;-66
2021/08/20 01:36:03;;;;;;;49.42;30.00;;;;;;;;;;5113817;27;20081;-66
2021/08/20 01:38:29;;;;;;;88.15;34.15;;;;;;;;;;5109088;27;20027;-66
2021/08/20 01:40:56;;;;;;;72.53;32.42;;;;;;;;;;5098688;27;20058;-66
2021/08/20 01:43:23;;;;;;;55.47;31.23;;;;;;;;;;5108424;27;20474;-66
2021/08/20 01:45:49;;;;;;;61.97;31.52;;;;;;;;;;5111478;27;20541;-66
2021/08/20 01:48:15;;;;;;;45.63;29.98;;;;;;;;;;5112996;27;20039;-66
2021/08/20 01:50:43;;;;;;;53.08;30.40;;;;;;;;;;5115185;27;20044;-66
2021/08/20 01:53:13;;;;;;;54.60;32.47;;;;;;;;;;5107701;27;20035;-66
2021/08/20 01:55:41;;;;;;;45.88;30.13;;;;;;;;;;5114463;27;20063;-66
2021/08/20 01:58:08;;;;;;;53.47;32.00;;;;;;;;;;5111623;27;20032;-66
2021/08/20 02:00:34;;;;;;;57.80;33.50;;;;;;;;;;5099146;27;20036;-66
2021/08/20 02:03:01;;;;;;;49.13;32.47;;;;;;;;;;5109686;27;20503;-66
2021/08/20 02:05:28;;;;;;;49.67;32.60;;;;;;;;;;5110503;27;20118;-66
2021/08/20 02:07:54;;;;;;;113.35;40.05;;;;;;;;;;5114959;27;20062;-66
2021/08/20 02:10:20;;;;;;;57.80;35.13;;;;;;;;;;5107972;27;20050;-66
2021/08/20 02:12:47;;;;;;;63.65;36.10;;;;;;;;;;5096607;27;20051;-66
2021/08/20 02:15:13;;;;;;;66.60;35.20;;;;;;;;;;5113097;27;20055;-67
2021/08/20 02:17:40;;;;;;;52.45;34.97;;;;;;;;;;5119284;27;20114;-66
2021/08/20 02:20:06;;;;;;;55.72;34.55;;;;;;;;;;5104792;27;20042;-66
2021/08/20 02:22:33;;;;;;;85.65;38.28;;;;;;;;;;5115899;27;20067;-66
2021/08/20 02:24:59;;;;;;;59.53;36.15;;;;;;;;;;5109554;27;20041;-67
2021/08/20 02:27:25;;;;;;;90.85;39.65;;;;;;;;;;5112920;27;20036;-67
2021/08/20 02:29:51;;;;;;;100.90;41.15;;;;;;;;;;5108092;27;20031;-66
2021/08/20 02:32:17;;;;;;;121.03;42.40;;;;;;;;;;5114445;27;20114;-66
2021/08/20 02:34:44;;;;;;;60.35;34.97;;;;;;;;;;5113486;27;20114;-66
2021/08/20 02:37:10;;;;;;;76.88;38.50;;;;;;;;;;5115738;27;20034;-66
2021/08/20 02:39:37;;;;;;;62.72;36.28;;;;;;;;;;5106616;27;20035;-67
2021/08/20 02:42:03;;;;;;;85.90;39.80;;;;;;;;;;5115291;27;20352;-67
2021/08/20 02:44:29;;;;;;;55.08;35.97;;;;;;;;;;5117115;27;20031;-67
2021/08/20 02:46:55;;;;;;;63.97;36.33;;;;;;;;;;5106883;27;20040;-67
2021/08/20 02:49:22;;;;;;;75.40;36.08;;;;;;;;;;5115142;27;20035;-67
2021/08/20 02:51:48;;;;;;;86.45;38.35;;;;;;;;;;5117282;27;20504;-67
2021/08/20 02:54:14;;;;;;;50.30;35.03;;;;;;;;;;5112635;27;20491;-67
2021/08/20 02:56:40;;;;;;;129.32;45.53;;;;;;;;;;5104506;27;20278;-67
2021/08/20 02:59:06;;;;;;;56.95;35.92;;;;;;;;;;5116469;27;20452;-67
2021/08/20 03:01:32;;;;;;;164.75;48.13;;;;;;;;;;5114209;27;20103;-67
2021/08/20 03:03:58;;;;;;;100.07;42.95;;;;;;;;;;5105641;27;20051;-67
2021/08/20 03:06:25;;;;;;;182.85;50.00;;;;;;;;;;5106199;27;20086;-67
2021/08/20 03:08:51;;;;;;;128.55;47.58;;;;;;;;;;5116599;27;20032;-67
2021/08/20 03:11:17;;;;;;;105.53;44.70;;;;;;;;;;5110372;27;20092;-67
2021/08/20 03:13:43;;;;;;;74.40;41.45;;;;;;;;;;5105353;27;20101;-67
2021/08/20 03:16:09;;;;;;;85.78;43.78;;;;;;;;;;5108636;27;20384;-67
2021/08/20 03:18:36;;;;;;;142.68;51.45;;;;;;;;;;5116656;27;20407;-67
2021/08/20 03:21:02;;;;;;;187.20;51.85;;;;;;;;;;5111486;27;20062;-67
2021/08/20 03:23:28;;;;;;;83.85;43.72;;;;;;;;;;5103440;27;20024;-67
2021/08/20 03:25:54;;;;;;;66.32;40.80;;;;;;;;;;5114535;27;20040;-67
2021/08/20 03:28:20;;;;;;;61.58;39.42;;;;;;;;;;5102956;27;20067;-66
2021/08/20 03:30:46;;;;;;;60.38;39.20;;;;;;;;;;5113714;27;20064;-66
2021/08/20 03:33:12;;;;;;;231.80;54.45;;;;;;;;;;5105446;28;20511;-67
2021/08/20 03:35:38;;;;;;;155.30;50.25;;;;;;;;;;5119409;27;20483;-67
2021/08/20 03:38:04;;;;;;;69.43;40.85;;;;;;;;;;5105486;28;20047;-67
2021/08/20 03:40:31;;;;;;;76.57;41.33;;;;;;;;;;5105820;28;20089;-67
2021/08/20 03:42:57;;;;;;;107.38;43.00;;;;;;;;;;5108231;28;20097;-66
2021/08/20 03:45:23;;;;;;;59.00;40.83;;;;;;;;;;5115185;28;20059;-66
2021/08/20 03:47:49;;;;;;;78.07;41.33;;;;;;;;;;5105852;28;20407;-67
2021/08/20 03:50:16;;;;;;;61.75;40.45;;;;;;;;;;5110785;28;20075;-67
2021/08/20 03:52:42;;;;;;;159.85;51.42;;;;;;;;;;5107139;28;20032;-67
2021/08/20 03:55:09;;;;;;;176.07;52.88;;;;;;;;;;5114923;28;20043;-67
2021/08/20 03:57:35;;;;;;;305.33;64.68;;;;;;;;;;5107121;28;20811;-67
2021/08/20 04:00:01;;;;;;;281.10;61.95;;;;;;;;;;5111283;28;20028;-66
2021/08/20 04:02:27;;;;;;;101.93;45.97;;;;;;;;;;5113019;28;20051;-66
2021/08/20 04:04:54;;;;;;;106.50;47.70;;;;;;;;;;5107976;28;20043;-66
2021/08/20 04:07:20;;;;;;;83.20;43.28;;;;;;;;;;5107250;28;20561;-66
2021/08/20 04:09:47;;;;;;;73.18;42.90;;;;;;;;;;5100659;28;20051;-67
2021/08/20 04:12:14;;;;;;;65.68;40.45;;;;;;;;;;5117099;28;20092;-67
2021/08/20 04:14:40;;;;;;;76.90;43.28;;;;;;;;;;5104805;28;20086;-67
2021/08/20 04:17:07;;;;;;;78.00;42.45;;;;;;;;;;5112045;28;20075;-67
2021/08/20 04:19:33;;;;;;;58.03;37.85;;;;;;;;;;5109823;28;20044;-67
2021/08/20 04:21:59;;;;;;;74.60;41.00;;;;;;;;;;5115088;28;20126;-67
2021/08/20 04:24:25;;;;;;;76.95;42.35;;;;;;;;;;5099342;28;20043;-67
2021/08/20 04:26:51;;;;;;;65.43;39.97;;;;;;;;;;5118193;28;20111;-67
2021/08/20 04:29:18;;;;;;;132.63;48.42;;;;;;;;;;5109340;28;20062;-66
2021/08/20 04:31:44;;;;;;;62.08;40.78;;;;;;;;;;5112650;28;20051;-66
2021/08/20 04:34:10;;;;;;;64.32;38.10;;;;;;;;;;5084805;28;20101;-67
2021/08/20 04:36:37;;;;;;;62.28;39.00;;;;;;;;;;5111838;28;20112;-66
2021/08/20 04:39:03;;;;;;;76.57;40.35;;;;;;;;;;5112208;28;20043;-66
2021/08/20 04:41:29;;;;;;;135.80;46.95;;;;;;;;;;5102256;28;20039;-66
2021/08/20 04:43:57;;;;;;;148.57;49.08;;;;;;;;;;5107945;28;20102;-66
2021/08/20 04:46:24;;;;;;;80.60;41.45;;;;;;;;;;5105954;28;20039;-66
2021/08/20 04:48:51;;;;;;;86.32;40.70;;;;;;;;;;5116234;27;20368;-66
2021/08/20 04:51:19;;;;;;;75.25;39.42;;;;;;;;;;5108453;27;20088;-66
2021/08/20 04:53:45;;;;;;;59.50;38.67;;;;;;;;;;5117550;27;20035;-66
2021/08/20 04:56:11;;;;;;;50.25;35.45;;;;;;;;;;5107923;27;20043;-66
2021/08/20 04:58:37;;;;;;;53.17;34.88;;;;;;;;;;5115023;27;20130;-66
2021/08/20 05:01:04;;;;;;;209.95;52.90;;;;;;;;;;5108135;27;20406;-66
2021/08/20 05:03:37;;;;;;;214.33;52.63;;;;;;;;;;5117257;27;20056;-66
2021/08/20 05:06:03;;;;;;;89.88;38.63;;;;;;;;;;5110845;27;20475;-66
2021/08/20 05:08:30;;;;;;;81.15;38.13;;;;;;;;;;5111886;27;20031;-66
2021/08/20 05:10:57;;;;;;;83.57;39.72;;;;;;;;;;5106979;27;20031;-66
2021/08/20 05:13:23;;;;;;;68.95;37.75;;;;;;;;;;5119244;27;20047;-66
2021/08/20 05:15:49;;;;;;;61.70;38.42;;;;;;;;;;5105307;27;20058;-66
2021/08/20 05:18:15;;;;;;;62.85;36.97;;;;;;;;;;5111384;27;20074;-66
2021/08/20 05:20:41;;;;;;;44.70;34.35;;;;;;;;;;5116507;27;20066;-66
2021/08/20 05:23:07;;;;;;;58.85;33.80;;;;;;;;;;5113313;27;20535;-66
2021/08/20 05:25:35;;;;;;;72.90;37.65;;;;;;;;;;5112155;27;20067;-66
2021/08/20 05:28:02;;;;;;;100.55;41.47;;;;;;;;;;5108514;27;20067;-66
2021/08/20 05:30:28;;;;;;;64.68;38.70;;;;;;;;;;5119296;27;20550;-66
2021/08/20 05:32:54;;;;;;;80.85;40.38;;;;;;;;;;5112219;27;20529;-66
2021/08/20 05:35:20;;;;;;;59.35;36.10;;;;;;;;;;5112486;27;20027;-66
2021/08/20 05:37:46;;;;;;;79.93;42.03;;;;;;;;;;5109657;27;20137;-66
2021/08/20 05:40:13;;;;;;;63.13;37.67;;;;;;;;;;5118293;27;20047;-66
2021/08/20 05:42:40;;;;;;;72.18;38.97;;;;;;;;;;5106852;27;20046;-66
2021/08/20 05:45:06;;;;;;;64.60;36.45;;;;;;;;;;5113335;27;20044;-66
2021/08/20 05:47:32;;;;;;;113.15;45.40;;;;;;;;;;5109410;27;20134;-66
2021/08/20 05:49:59;;;;;;;71.32;38.35;;;;;;;;;;5121220;27;20047;-66
2021/08/20 05:52:25;;;;;;;66.60;39.53;;;;;;;;;;5103006;27;20042;-66
2021/08/20 05:54:51;;;;;;;54.42;34.28;;;;;;;;;;5117683;27;20043;-66
2021/08/20 05:57:17;;;;;;;62.03;36.28;;;;;;;;;;5110308;27;20036;-67
2021/08/20 05:59:43;;;;;;;57.08;35.33;;;;;;;;;;5114538;27;20092;-66
2021/08/20 06:02:10;;;;;;;50.25;33.40;;;;;;;;;;5113098;27;20539;-67
2021/08/20 06:04:37;;;;;;;60.42;36.15;;;;;;;;;;5107485;27;20035;-67
2021/08/20 06:07:06;;;;;;;55.35;33.90;;;;;;;;;;5118450;27;20497;-66
2021/08/20 06:09:33;;;;;;;65.30;37.80;;;;;;;;;;5107105;27;20061;-66
2021/08/20 06:11:59;;;;;;;78.25;38.42;;;;;;;;;;5111124;27;20043;-66
2021/08/20 06:14:25;;;;;;;52.08;34.70;;;;;;;;;;5111824;27;20516;-67
2021/08/20 06:16:55;;;;;;;88.20;41.13;;;;;;;;;;5116192;27;20065;-66
2021/08/20 06:19:22;;;;;;;72.90;38.60;;;;;;;;;;5101736;27;20028;-66
2021/08/20 06:21:49;;;;;;;65.82;38.30;;;;;;;;;;5112298;27;20436;-66
2021/08/20 06:24:15;;;;;;;84.85;41.65;;;;;;;;;;5110124;27;20036;-67
2021/08/20 06:26:41;;;;;;;63.05;38.47;;;;;;;;;;5111932;27;20351;-67
2021/08/20 06:29:07;;;;;;;53.80;36.63;;;;;;;;;;5107418;27;20062;-67
2021/08/20 06:31:34;;;;;;;61.10;38.28;;;;;;;;;;5113772;27;20048;-67
2021/08/20 06:34:00;;;;;;;54.55;37.05;;;;;;;;;;5105440;27;20439;-67
2021/08/20 06:36:26;;;;;;;51.38;33.97;;;;;;;;;;5111066;27;20043;-67
2021/08/20 06:38:52;;;;;;;52.20;36.03;;;;;;;;;;5107695;27;20052;-67
2021/08/20 06:41:18;;;;;;;57.85;35.65;;;;;;;;;;5117028;27;20471;-67
2021/08/20 06:43:45;;;;;;;55.05;35.58;;;;;;;;;;5120380;27;20112;-67
2021/08/20 06:46:11;;;;;;;41.58;31.75;;;;;;;;;;5103124;27;20040;-67
2021/08/20 06:48:37;;;;;;;47.33;31.77;;;;;;;;;;5113037;27;20085;-67
2021/08/20 06:51:03;;;;;;;58.25;37.80;;;;;;;;;;5105424;27;20124;-67
2021/08/20 06:53:29;;;;;;;47.72;34.88;;;;;;;;;;5114604;27;20036;-67
2021/08/20 06:55:56;;;;;;;47.22;33.47;;;;;;;;;;5105313;27;20088;-67
2021/08/20 06:58:22;;;;;;;48.38;36.10;;;;;;;;;;5118647;27;20051;-67
2021/08/20 07:00:49;;;;;;;40.85;33.63;;;;;;;;;;5109293;27;20039;-67
2021/08/20 07:03:16;;;;;;;42.60;34.92;;;;;;;;;;5110984;27;20070;-67
2021/08/20 07:05:44;;;;;;;46.70;35.13;;;;;;;;;;5105707;27;20328;-67
2021/08/20 07:08:10;;;;;;;50.00;34.83;;;;;;;;;;5113221;27;20480;-67
2021/08/20 07:10:37;;;;;;;34.97;31.30;;;;;;;;;;5106900;27;20416;-67
2021/08/20 07:13:03;;;;;;;41.22;32.80;;;;;;;;;;5108322;27;20511;-67
2021/08/20 07:15:29;;;;;;;39.35;32.92;;;;;;;;;;5109574;27;20393;-67
2021/08/20 07:17:55;;;;;;;37.65;33.55;;;;;;;;;;5113595;27;20048;-67
2021/08/20 07:20:22;;;;;;;36.38;32.55;;;;;;;;;;5112709;27;20039;-67
2021/08/20 07:22:48;;;;;;;37.25;33.25;;;;;;;;;;5107435;27;20050;-67
2021/08/20 07:25:14;;;;;;;37.70;32.28;;;;;;;;;;5119168;27;20407;-67
2021/08/20 07:27:40;;;;;;;34.95;31.42;;;;;;;;;;5110837;27;20040;-67
2021/08/20 07:30:07;;;;;;;34.08;30.58;;;;;;;;;;5111473;28;20118;-67
2021/08/20 07:32:33;;;;;;;33.38;29.08;;;;;;;;;;5104301;27;20031;-67
2021/08/20 07:34:59;;;;;;;36.45;30.83;;;;;;;;;;5118915;27;20463;-67
2021/08/20 07:37:26;;;;;;;37.88;31.88;;;;;;;;;;5104734;28;20044;-67
2021/08/20 07:39:52;;;;;;;44.65;34.42;;;;;;;;;;5113250;28;20043;-67
2021/08/20 07:42:19;;;;;;;44.22;34.10;;;;;;;;;;5104810;28;20166;-67
2021/08/20 07:44:46;;;;;;;41.05;33.97;;;;;;;;;;5117320;28;20266;-67
2021/08/20 07:47:12;;;;;;;41.22;34.22;;;;;;;;;;5107658;28;20038;-67
2021/08/20 07:49:38;;;;;;;39.67;34.03;;;;;;;;;;5110259;28;20051;-67
2021/08/20 07:52:04;;;;;;;50.65;36.67;;;;;;;;;;5109099;28;20039;-67
2021/08/20 07:54:30;;;;;;;39.58;33.10;;;;;;;;;;5116070;28;20549;-67
2021/08/20 07:56:56;;;;;;;43.80;34.10;;;;;;;;;;5106304;28;20592;-67
2021/08/20 07:59:23;;;;;;;42.35;34.00;;;;;;;;;;5110221;28;20032;-67
2021/08/20 08:01:49;;;;;;;39.08;33.20;;;;;;;;;;5115317;28;20032;-67
2021/08/20 08:04:15;;;;;;;42.35;33.90;;;;;;;;;;5107663;28;20043;-67
2021/08/20 08:06:41;;;;;;;40.22;33.05;;;;;;;;;;5112575;28;20031;-67
2021/08/20 08:09:07;;;;;;;42.00;34.72;;;;;;;;;;5103619;28;20040;-68
2021/08/20 08:11:34;;;;;;;37.55;32.92;;;;;;;;;;5115179;28;20040;-68
2021/08/20 08:14:07;;;;;;;38.97;32.58;;;;;;;;;;5106928;28;20067;-68
2021/08/20 08:16:34;;;;;;;39.20;32.70;;;;;;;;;;5107706;28;20076;-68
2021/08/20 08:19:01;;;;;;;40.85;35.03;;;;;;;;;;5104144;28;20529;-68
2021/08/20 08:21:28;;;;;;;41.90;33.92;;;;;;;;;;5114942;28;20035;-67
2021/08/20 08:23:54;;;;;;;35.33;31.48;;;;;;;;;;5107100;27;20051;-67
2021/08/20 08:26:20;;;;;;;43.20;34.40;;;;;;;;;;5116635;27;20113;-67
2021/08/20 08:28:46;;;;;;;36.95;33.05;;;;;;;;;;5096497;27;20479;-67
2021/08/20 08:31:12;;;;;;;43.00;31.98;;;;;;;;;;5115614;27;20054;-67
2021/08/20 08:33:38;;;;;;;38.97;31.95;;;;;;;;;;5108847;27;20043;-68
2021/08/20 08:36:05;;;;;;;35.22;30.80;;;;;;;;;;5119804;27;20075;-67
2021/08/20 08:38:31;;;;;;;35.92;32.00;;;;;;;;;;5112756;27;20449;-67
2021/08/20 08:40:57;;;;;;;36.58;32.05;;;;;;;;;;5118338;27;20456;-67
2021/08/20 08:43:23;;;;;;;35.17;31.08;;;;;;;;;;5111885;27;20032;-67
2021/08/20 08:45:49;;;;;;;35.53;31.23;;;;;;;;;;5109727;27;20028;-67
2021/08/20 08:48:15;;;;;;;47.55;34.08;;;;;;;;;;5117771;27;20039;-67
2021/08/20 08:50:46;;;;;;;36.10;32.17;;;;;;;;;;5107005;27;20035;-67
2021/08/20 08:53:12;;;;;;;39.10;33.42;;;;;;;;;;5112743;27;20035;-67
2021/08/20 08:55:38;;;;;;;40.28;33.58;;;;;;;;;;5105367;27;20598;-67
2021/08/20 08:58:08;;;;;;;41.17;34.28;;;;;;;;;;5117736;27;20039;-67
2021/08/20 09:00:35;;;;;;;40.63;34.13;;;;;;;;;;5110287;27;20035;-67
2021/08/20 09:03:03;;;;;;;43.08;35.42;;;;;;;;;;5116791;27;20039;-67
2021/08/20 09:05:45;;;;;;;39.55;34.00;;;;;;;;;;5114860;27;20031;-67
2021/08/20 09:08:22;;;;;;;40.40;35.35;;;;;;;;;;5101874;27;20106;-67
2021/08/20 09:10:59;;;;;;;42.42;35.20;;;;;;;;;;5098630;27;20101;-68
2021/08/20 09:13:26;;;;;;;38.58;33.40;;;;;;;;;;5091675;27;20404;-67
2021/08/20 09:16:12;;;;;;;40.53;35.72;;;;;;;;;;5111997;27;20043;-68
2021/08/20 09:18:39;;;;;;;42.97;33.13;;;;;;;;;;5114933;27;20055;-68
2021/08/20 09:21:05;;;;;;;38.92;32.20;;;;;;;;;;5106486;27;20518;-68
2021/08/20 09:23:32;;;;;;;36.85;32.03;;;;;;;;;;5119509;27;20379;-67
2021/08/20 09:25:58;;;;;;;38.55;32.72;;;;;;;;;;5104310;27;20519;-68
2021/08/20 09:28:28;;;;;;;33.53;30.08;;;;;;;;;;5110508;27;20135;-68
2021/08/20 09:30:55;;;;;;;34.17;29.65;;;;;;;;;;5090372;27;20043;-68
2021/08/20 09:33:25;;;;;;;33.15;28.75;;;;;;;;;;5109778;27;20046;-68
2021/08/20 09:36:02;;;;;;;31.42;28.02;;;;;;;;;;5105373;27;20043;-68
2021/08/20 09:38:29;;;;;;;29.08;25.88;;;;;;;;;;5113524;27;20039;-68
2021/08/20 09:40:59;;;;;;;31.35;26.40;;;;;;;;;;5113312;27;20051;-68
2021/08/20 09:43:29;;;;;;;27.35;24.17;;;;;;;;;;5108368;27;20039;-68
2021/08/20 09:46:10;;;;;;;28.30;25.00;;;;;;;;;;5108215;27;20479;-68
2021/08/20 09:48:39;;;;;;;27.10;24.23;;;;;;;;;;5107138;27;20549;-67
2021/08/20 09:51:05;;;;;;;25.48;22.92;;;;;;;;;;5109388;27;20498;-67
2021/08/20 09:53:31;;;;;;;24.23;21.80;;;;;;;;;;5104165;27;20051;-67
2021/08/20 09:55:59;;;;;;;23.25;20.90;;;;;;;;;;5121829;27;20470;-67
2021/08/20 09:58:26;;;;;;;22.08;19.77;;;;;;;;;;5109835;27;20039;-67
2021/08/20 10:00:52;;;;;;;20.38;18.30;;;;;;;;;;5109639;27;20479;-67
2021/08/20 10:03:19;;;;;;;20.10;18.08;;;;;;;;;;5104002;27;20527;-68
2021/08/20 10:05:46;;;;;;;20.52;17.40;;;;;;;;;;5116964;27;20046;-68
2021/08/20 10:08:14;;;;;;;18.30;16.30;;;;;;;;;;5104767;27;20427;-68
2021/08/20 10:10:42;;;;;;;19.70;15.93;;;;;;;;;;5110417;27;20071;-68
2021/08/20 10:13:09;;;;;;;19.35;17.35;;;;;;;;;;5103690;27;20046;-68
2021/08/20 10:15:36;;;;;;;18.42;16.38;;;;;;;;;;5112727;27;20051;-68
2021/08/20 10:18:05;;;;;;;20.30;16.48;;;;;;;;;;5087193;27;20146;-68
2021/08/20 10:20:34;;;;;;;18.38;16.50;;;;;;;;;;5114460;27;20043;-68
2021/08/20 10:23:00;;;;;;;19.95;17.95;;;;;;;;;;5106122;27;20104;-68
2021/08/20 10:25:27;;;;;;;17.30;15.60;;;;;;;;;;5109333;27;20036;-68
2021/08/20 10:27:54;;;;;;;17.98;15.75;;;;;;;;;;5102095;27;20129;-68
2021/08/20 10:30:20;;;;;;;16.92;14.75;;;;;;;;;;5119004;27;20055;-68
2021/08/20 10:33:02;;;;;;;16.88;15.07;;;;;;;;;;5111627;27;20044;-68
2021/08/20 10:35:47;;;;;;;17.52;15.57;;;;;;;;;;5111241;27;20531;-68
2021/08/20 10:38:30;;;;;;;16.35;14.63;;;;;;;;;;5106104;27;20133;-69
2021/08/20 10:41:09;;;;;;;17.50;15.70;;;;;;;;;;5111539;27;20118;-69
2021/08/20 10:43:48;;;;;;;17.05;15.30;;;;;;;;;;5092015;28;20107;-69
2021/08/20 10:46:33;;;;;;;16.27;14.68;;;;;;;;;;5112191;27;20082;-69
2021/08/20 10:51:48;;;;;;;16.67;15.07;;;;;;;;;;5111086;27;20047;-69
2021/08/20 10:54:15;;;;;;;14.93;12.32;;;;;;;;;;5111274;27;20046;-69
2021/08/20 10:56:41;;;;;;;14.48;11.52;;;;;;;;;;5117448;27;20408;-69
2021/08/20 10:59:07;;;;;;;14.20;12.20;;;;;;;;;;5104240;27;20048;-69
2021/08/20 11:01:34;;;;;;;13.60;12.07;;;;;;;;;;5112332;27;20058;-69
2021/08/20 11:04:00;;;;;;;14.45;12.90;;;;;;;;;;5110406;27;20462;-69
2021/08/20 11:06:45;;;;;;;17.23;13.63;;;;;;;;;;5107636;27;20024;-69
2021/08/20 11:09:30;;;;;;;14.68;13.15;;;;;;;;;;5100454;27;20045;-69
2021/08/20 11:11:58;;;;;;;14.52;13.13;;;;;;;;;;5107647;27;20472;-69
2021/08/20 11:14:28;;;;;;;15.15;13.02;;;;;;;;;;5111850;27;20050;-69
2021/08/20 11:16:55;;;;;;;17.95;15.13;;;;;;;;;;5109288;27;20064;-69
2021/08/20 11:19:40;;;;;;;16.67;13.23;;;;;;;;;;5100631;27;20081;-69
2021/08/20 11:22:19;;;;;;;14.40;12.80;;;;;;;;;;5110151;27;20044;-69
2021/08/20 11:25:09;;;;;;;14.15;12.65;;;;;;;;;;5113925;27;20032;-69
2021/08/20 11:27:35;;;;;;;13.07;11.77;;;;;;;;;;5108010;27;20043;-69
2021/08/20 11:30:03;;;;;;;12.23;10.90;;;;;;;;;;5104133;27;20039;-69
2021/08/20 11:32:29;;;;;;;11.18;10.02;;;;;;;;;;5106886;27;20941;-68
2021/08/20 11:34:55;;;;;;;10.88;9.82;;;;;;;;;;5118138;27;20039;-69
2021/08/20 11:37:22;;;;;;;10.23;8.88;;;;;;;;;;5099725;28;21846;-69
2021/08/20 11:40:09;;;;;;;10.18;8.93;;;;;;;;;;5110494;28;20031;-69
2021/08/20 11:42:35;;;;;;;12.23;8.60;;;;;;;;;;5110388;28;20044;-69
2021/08/20 11:45:17;;;;;;;10.82;9.07;;;;;;;;;;5111120;28;20640;-71
2021/08/20 11:47:43;;;;;;;10.10;9.05;;;;;;;;;;5095344;28;20032;-68
2021/08/20 11:50:10;;;;;;;11.80;9.85;;;;;;;;;;5113945;28;20039;-69
2021/08/20 11:52:45;;;;;;;10.40;9.43;;;;;;;;;;5102057;28;20043;-69
2021/08/20 11:55:18;;;;;;;12.20;10.85;;;;;;;;;;5102941;28;20040;-69
2021/08/20 11:57:44;;;;;;;13.50;10.40;;;;;;;;;;5097412;27;20114;-69
2021/08/20 12:00:10;;;;;;;11.77;10.27;;;;;;;;;;5110510;27;20031;-69
2021/08/20 12:02:37;;;;;;;13.15;11.27;;;;;;;;;;5098726;27;20049;-68
2021/08/20 12:05:12;;;;;;;13.20;10.32;;;;;;;;;;5107748;27;20039;-68
2021/08/20 12:07:38;;;;;;;14.93;10.80;;;;;;;;;;5099413;27;20040;-69
2021/08/20 12:10:04;;;;;;;10.70;9.60;;;;;;;;;;5110871;27;20096;-69
2021/08/20 12:12:33;;;;;;;12.05;8.10;;;;;;;;;;5100948;27;20406;-69
2021/08/20 12:15:00;;;;;;;9.80;8.57;;;;;;;;;;5108103;27;20071;-69
2021/08/20 12:17:31;;;;;;;8.80;7.90;;;;;;;;;;5103425;27;20497;-69
2021/08/20 12:19:58;;;;;;;10.35;8.35;;;;;;;;;;5107239;27;20115;-69
2021/08/20 12:22:39;;;;;;;10.82;9.63;;;;;;;;;;5102260;27;20384;-69
2021/08/20 12:25:19;;;;;;;9.85;8.85;;;;;;;;;;5105770;27;20418;-69
2021/08/20 12:27:46;;;;;;;9.88;8.98;;;;;;;;;;5110973;27;20028;-69
2021/08/20 12:30:14;;;;;;;11.23;10.10;;;;;;;;;;5110230;27;20070;-69
2021/08/20 12:32:42;;;;;;;12.02;10.70;;;;;;;;;;5097762;27;20042;-68
2021/08/20 12:35:19;;;;;;;12.13;10.65;;;;;;;;;;5110713;27;20036;-68
2021/08/20 12:38:01;;;;;;;12.98;11.68;;;;;;;;;;5103909;27;20032;-68
2021/08/20 12:40:38;;;;;;;15.75;13.15;;;;;;;;;;5102422;27;20039;-68
2021/08/20 12:43:08;;;;;;;17.15;13.38;;;;;;;;;;5103937;27;20043;-68
2021/08/20 12:45:34;;;;;;;14.93;13.43;;;;;;;;;;5112998;27;20406;-68
2021/08/20 12:48:02;;;;;;;14.18;12.80;;;;;;;;;;5085860;27;20127;-67
2021/08/20 12:50:29;;;;;;;13.85;12.48;;;;;;;;;;5104946;27;20043;-67
2021/08/20 12:53:02;;;;;;;15.70;13.95;;;;;;;;;;5111906;27;20051;-66
2021/08/20 12:55:40;;;;;;;14.82;13.25;;;;;;;;;;5106192;27;20123;-66
2021/08/20 12:58:07;;;;;;;14.15;12.65;;;;;;;;;;5108882;27;20062;-66
2021/08/20 13:00:34;;;;;;;17.02;13.43;;;;;;;;;;5105147;27;20059;-66
2021/08/20 13:03:01;;;;;;;12.52;11.02;;;;;;;;;;5114057;27;23066;-66
2021/08/20 13:05:27;;;;;;;11.77;10.55;;;;;;;;;;5104133;27;20074;-66
2021/08/20 13:07:54;;;;;;;11.77;10.50;;;;;;;;;;5109445;27;20049;-66
2021/08/20 13:10:20;;;;;;;12.23;10.40;;;;;;;;;;5103397;27;20047;-68
2021/08/20 13:12:46;;;;;;;11.05;9.50;;;;;;;;;;5120968;27;20043;-68
2021/08/20 13:15:15;;;;;;;10.20;8.65;;;;;;;;;;5104800;27;20050;-68
2021/08/20 13:17:43;;;;;;;9.82;8.82;;;;;;;;;;5112165;27;20039;-68
2021/08/20 13:20:09;;;;;;;11.57;8.65;;;;;;;;;;5105574;27;20081;-69
2021/08/20 13:22:35;;;;;;;9.98;8.98;;;;;;;;;;5111462;27;20054;-69
2021/08/20 13:25:02;;;;;;;10.60;9.50;;;;;;;;;;5105729;27;20036;-68
2021/08/20 13:27:28;;;;;;;10.88;9.77;;;;;;;;;;5110431;27;20045;-68
2021/08/20 13:29:56;;;;;;;11.32;8.80;;;;;;;;;;5105737;27;20067;-68
2021/08/20 13:32:22;;;;;;;10.38;9.38;;;;;;;;;;5110854;27;20042;-68
2021/08/20 13:34:48;;;;;;;9.48;8.45;;;;;;;;;;5113030;27;20472;-69
2021/08/20 13:37:14;;;;;;;10.63;9.52;;;;;;;;;;5115788;27;20088;-69
2021/08/20 13:39:41;;;;;;;13.25;9.80;;;;;;;;;;5112846;27;20125;-69
2021/08/20 13:42:07;;;;;;;10.55;8.38;;;;;;;;;;5104625;27;20035;-69
2021/08/20 13:44:33;;;;;;;9.07;8.18;;;;;;;;;;5115610;27;20060;-69
2021/08/20 13:46:59;;;;;;;8.25;7.45;;;;;;;;;;5110687;27;20042;-69
2021/08/20 13:49:25;;;;;;;6.82;6.07;;;;;;;;;;5109021;27;20040;-69
2021/08/20 13:51:51;;;;;;;7.90;6.35;;;;;;;;;;5107872;27;20035;-69
2021/08/20 13:54:18;;;;;;;9.35;6.93;;;;;;;;;;5113530;27;20051;-69
2021/08/20 13:56:44;;;;;;;9.32;7.25;;;;;;;;;;5108697;27;20467;-69
2021/08/20 13:59:10;;;;;;;10.85;7.55;;;;;;;;;;5111727;27;20462;-69
2021/08/20 14:01:36;;;;;;;8.63;6.95;;;;;;;;;;5102666;27;20138;-69
2021/08/20 14:04:03;;;;;;;8.50;6.72;;;;;;;;;;5114846;27;20078;-69
2021/08/20 14:06:31;;;;;;;9.82;6.75;;;;;;;;;;5092482;28;20055;-69
2021/08/20 14:08:58;;;;;;;7.50;6.15;;;;;;;;;;5084882;27;20193;-69
2021/08/20 14:11:24;;;;;;;8.00;6.93;;;;;;;;;;5108531;27;20031;-69
2021/08/20 14:13:50;;;;;;;6.93;6.22;;;;;;;;;;5085502;27;20056;-69
2021/08/20 14:16:16;;;;;;;8.45;6.68;;;;;;;;;;5107037;27;20084;-69
2021/08/20 14:18:43;;;;;;;10.27;6.75;;;;;;;;;;5107005;27;20063;-69
2021/08/20 14:21:09;;;;;;;9.70;6.55;;;;;;;;;;5115485;27;20122;-69
2021/08/20 14:23:35;;;;;;;8.30;6.80;;;;;;;;;;5105332;27;20051;-69